Time;durP1;ratioP1;P1;durP2;ratioP2;P2;SDS_P1;SDS_P2;PMS_P1;PMS_P2;Temp;Humidity;BMP_temperature;BMP_pressure;BME280_temperature;BME280_humidity;BME280_pressure;Samples;Min_cycle;Max_cycle;Signal;HPM_P1;HPM_P2
2023/05/10 00:01:20;;;;;;;43.53;40.92;;;;;;;19.88;52.88;100734.19;5085622;28;20395;-71
2023/05/10 00:03:46;;;;;;;44.40;41.70;;;;;;;19.88;53.13;100734.19;5125724;27;20471;-71
2023/05/10 00:06:12;;;;;;;44.45;41.72;;;;;;;19.86;53.43;100730.97;5113287;28;20165;-71
2023/05/10 00:08:37;;;;;;;48.30;45.10;;;;;;;19.87;53.35;100732.59;5128160;28;20668;-75
2023/05/10 00:11:02;;;;;;;48.58;45.50;;;;;;;19.85;52.92;100732.88;5114323;28;20115;-71
2023/05/10 00:13:28;;;;;;;46.55;43.63;;;;;;;19.84;53.25;100734.00;5133867;27;20035;-71
2023/05/10 00:15:53;;;;;;;47.10;44.15;;;;;;;19.83;52.91;100735.16;5116973;27;20031;-70
2023/05/10 00:18:19;;;;;;;49.40;46.40;;;;;;;19.83;53.25;100737.06;5136213;27;20138;-72
2023/05/10 00:20:45;;;;;;;45.75;42.88;;;;;;;19.81;53.41;100736.56;5118689;27;20035;-70
2023/05/10 00:23:11;;;;;;;46.50;43.10;;;;;;;19.80;53.36;100738.47;5109594;27;20360;-71
2023/05/10 00:25:37;;;;;;;45.92;43.13;;;;;;;19.80;52.94;100740.41;5102075;27;20524;-71
2023/05/10 00:28:02;;;;;;;46.22;43.35;;;;;;;19.79;53.28;100739.59;5131839;27;20028;-76
2023/05/10 00:30:28;;;;;;;48.28;45.10;;;;;;;19.79;53.30;100744.28;5116410;27;20118;-71
2023/05/10 00:32:53;;;;;;;47.95;44.58;;;;;;;19.79;53.01;100744.28;5127421;27;20031;-72
2023/05/10 00:35:18;;;;;;;45.67;42.88;;;;;;;19.78;53.09;100735.25;5116095;27;20038;-72
2023/05/10 00:37:44;;;;;;;46.30;43.28;;;;;;;19.78;52.95;100737.16;5132555;27;20500;-75
2023/05/10 00:40:10;;;;;;;49.70;46.50;;;;;;;19.77;52.88;100732.81;5128418;27;20035;-72
2023/05/10 00:42:36;;;;;;;47.80;44.75;;;;;;;19.77;52.85;100741.03;5116021;28;20322;-72
2023/05/10 00:45:01;;;;;;;47.55;44.28;;;;;;;19.76;53.06;100736.66;5122936;27;20034;-72
2023/05/10 00:47:27;;;;;;;46.30;43.45;;;;;;;19.74;53.33;100727.94;5095235;27;20080;-74
2023/05/10 00:49:53;;;;;;;47.92;44.83;;;;;;;19.74;53.29;100741.63;5116616;27;20084;-73
2023/05/10 00:52:19;;;;;;;47.53;44.35;;;;;;;19.71;52.95;100720.31;5122099;27;20035;-76
2023/05/10 00:54:44;;;;;;;46.28;43.20;;;;;;;19.71;52.93;100717.59;5133538;27;20485;-72
2023/05/10 00:57:10;;;;;;;48.17;44.67;;;;;;;19.71;53.15;100723.88;5115871;28;20094;-71
2023/05/10 00:59:36;;;;;;;46.90;43.70;;;;;;;19.70;53.00;100716.75;5116053;28;20118;-74
2023/05/10 01:02:01;;;;;;;46.10;43.10;;;;;;;19.70;53.35;100718.69;5118063;27;20115;-71
2023/05/10 01:04:28;;;;;;;44.58;41.83;;;;;;;19.67;52.95;100720.91;5123824;27;20069;-72
2023/05/10 01:06:53;;;;;;;45.13;42.22;;;;;;;19.67;52.89;100718.19;5121573;27;20055;-76
2023/05/10 01:09:20;;;;;;;46.50;43.35;;;;;;;19.67;53.43;100718.19;5135093;27;20039;-72
2023/05/10 01:11:47;;;;;;;47.13;43.78;;;;;;;19.65;53.01;100717.66;5135947;27;20030;-72
2023/05/10 01:14:13;;;;;;;49.35;45.95;;;;;;;19.65;52.94;100714.91;5132721;27;20112;-72
2023/05/10 01:16:41;;;;;;;45.70;42.50;;;;;;;19.64;52.99;100716.00;5117922;27;20115;-76
2023/05/10 01:19:14;;;;;;;49.70;45.85;;;;;;;19.66;53.37;100715.72;5115432;27;20031;-72
2023/05/10 01:21:49;;;;;;;49.00;45.38;;;;;;;19.65;52.91;100722.31;5115545;27;20065;-72
2023/05/10 01:24:38;;;;;;;47.42;44.05;;;;;;;19.64;52.91;100726.97;5106225;27;20031;-72
2023/05/10 01:27:37;;;;;;;47.88;43.75;;;;;;;19.62;53.31;100725.66;5131932;27;20031;-76
2023/05/10 01:30:09;;;;;;;48.90;45.20;;;;;;;19.57;53.38;100729.31;5124609;27;20031;-72
2023/05/10 01:32:50;;;;;;;51.63;47.40;;;;;;;19.58;53.01;100728.19;5115176;28;20028;-71
2023/05/10 01:35:22;;;;;;;50.08;46.47;;;;;;;19.55;53.46;100728.78;5115073;27;20505;-72
2023/05/10 01:38:09;;;;;;;49.30;45.63;;;;;;;19.57;53.32;100728.50;5116289;27;20047;-76
2023/05/10 01:41:03;;;;;;;47.78;44.25;;;;;;;19.57;53.56;100739.47;5115160;27;20028;-74
2023/05/10 01:43:36;;;;;;;48.60;45.00;;;;;;;19.54;53.31;100740.06;5135737;27;20084;-70
2023/05/10 01:46:14;;;;;;;47.47;43.83;;;;;;;19.54;53.11;100743.63;5103299;28;20035;-72
2023/05/10 01:48:53;;;;;;;47.22;43.78;;;;;;;19.55;53.53;100747.16;5134750;27;20455;-70
2023/05/10 01:51:25;;;;;;;44.97;41.72;;;;;;;19.53;53.23;100736.53;5133332;27;20090;-72
2023/05/10 01:54:03;;;;;;;48.90;45.17;;;;;;;19.53;53.38;100739.25;5133557;27;20046;-71
2023/05/10 01:56:31;;;;;;;49.50;45.63;;;;;;;19.55;53.42;100738.94;5134409;27;20097;-71
2023/05/10 01:58:58;;;;;;;;;;;;;;;19.59;53.16;100739.97;5133203;27;20271;-71
2023/05/10 02:01:26;;;;;;;46.17;42.58;;;;;;;19.51;53.36;100738.75;5124757;27;19959;-74
2023/05/10 02:03:51;;;;;;;50.28;46.53;;;;;;;19.50;53.43;100741.78;5129127;27;20119;-71
2023/05/10 02:06:19;;;;;;;49.85;45.58;;;;;;;19.50;53.10;100736.31;5116163;27;20123;-74
2023/05/10 02:08:46;;;;;;;47.80;43.92;;;;;;;19.50;53.42;100736.31;5124240;27;20040;-71
2023/05/10 02:11:13;;;;;;;46.70;43.35;;;;;;;19.50;53.12;100737.09;5116041;27;20449;-72
2023/05/10 02:13:40;;;;;;;50.60;46.30;;;;;;;19.49;52.81;100743.72;5106731;28;20036;-74
2023/05/10 02:16:07;;;;;;;49.35;45.42;;;;;;;19.50;53.46;100747.25;5114375;27;20031;-74
2023/05/10 02:18:34;;;;;;;48.67;44.83;;;;;;;19.49;53.30;100740.97;5114619;27;20036;-71
2023/05/10 02:21:01;;;;;;;50.95;46.97;;;;;;;19.50;52.81;100744.50;5131571;27;20045;-72
2023/05/10 02:23:29;;;;;;;50.30;46.67;;;;;;;19.49;52.95;100751.94;5132120;27;20039;-73
2023/05/10 02:25:56;;;;;;;52.28;48.35;;;;;;;19.50;53.35;100747.25;5134135;27;20067;-74
2023/05/10 02:28:24;;;;;;;50.45;46.70;;;;;;;19.49;53.08;100757.41;5118992;27;20050;-74
2023/05/10 02:30:51;;;;;;;49.60;45.43;;;;;;;19.49;53.18;100753.88;5116895;27;20078;-70
2023/05/10 02:33:17;;;;;;;49.55;45.47;;;;;;;19.49;53.09;100754.66;5115242;27;20307;-71
2023/05/10 02:35:44;;;;;;;49.63;45.83;;;;;;;19.48;53.22;100755.78;5122242;27;20039;-71
2023/05/10 02:38:11;;;;;;;51.42;47.40;;;;;;;19.47;52.90;100756.91;5113937;27;20054;-72
2023/05/10 02:40:37;;;;;;;51.25;47.13;;;;;;;19.48;53.03;100760.44;5124482;27;20031;-70
2023/05/10 02:43:05;;;;;;;50.58;46.63;;;;;;;19.46;53.36;100761.56;5129849;27;20031;-80
2023/05/10 02:45:32;;;;;;;50.85;47.25;;;;;;;19.46;53.31;100767.03;5134181;27;20102;-73
2023/05/10 02:47:59;;;;;;;49.00;45.30;;;;;;;19.46;53.29;100771.72;5131990;27;20031;-75
2023/05/10 02:50:28;;;;;;;52.35;47.97;;;;;;;19.45;53.15;100767.34;5117301;27;20043;-70
2023/05/10 02:52:59;;;;;;;51.45;47.08;;;;;;;19.44;53.18;100765.72;5124226;27;20051;-71
2023/05/10 02:58:01;;;;;;;57.67;52.33;;;;;;;19.42;53.19;100773.41;5983939;22;20394;-70
2023/05/10 03:00:27;;;;;;;50.30;46.45;;;;;;;19.41;53.20;100775.34;5064993;28;20033;-70
2023/05/10 03:02:53;;;;;;;51.78;47.70;;;;;;;19.41;53.34;100769.88;5052854;28;20043;-70
2023/05/10 03:05:19;;;;;;;52.78;48.10;;;;;;;19.41;53.11;100777.28;5064259;28;20365;-72
2023/05/10 03:07:45;;;;;;;53.08;48.75;;;;;;;19.40;53.24;100781.13;5072123;28;20066;-70
2023/05/10 03:10:11;;;;;;;52.58;48.15;;;;;;;19.41;53.40;100771.81;5056804;28;20067;-70
2023/05/10 03:12:47;;;;;;;52.47;48.17;;;;;;;19.40;53.01;100773.75;5060100;28;20029;-72
2023/05/10 03:15:29;;;;;;;49.42;45.30;;;;;;;19.40;52.93;100771.00;5052751;28;20551;-72
2023/05/10 03:18:07;;;;;;;54.25;49.75;;;;;;;19.39;53.21;100766.63;5055046;28;20028;-72
2023/05/10 03:20:41;;;;;;;51.33;47.25;;;;;;;19.38;53.07;100781.44;5050770;28;20028;-73
2023/05/10 03:23:21;;;;;;;50.38;46.20;;;;;;;19.37;52.96;100773.50;5057905;28;20028;-72
2023/05/10 03:25:48;;;;;;;52.22;47.92;;;;;;;19.34;52.87;100766.72;5056527;28;20032;-72
2023/05/10 03:28:15;;;;;;;51.15;47.08;;;;;;;19.34;52.97;100783.16;5037866;28;20082;-72
2023/05/10 03:30:43;;;;;;;50.90;46.60;;;;;;;19.32;53.05;100779.88;5071651;28;20437;-72
2023/05/10 03:33:08;;;;;;;49.78;45.80;;;;;;;19.32;53.41;100788.09;5060186;28;20060;-74
2023/05/10 03:35:34;;;;;;;52.30;48.22;;;;;;;19.32;53.24;100784.56;5061140;28;20067;-72
2023/05/10 03:38:00;;;;;;;50.50;46.72;;;;;;;19.33;53.37;100791.69;5063443;28;20487;-72
2023/05/10 03:40:28;;;;;;;48.45;44.78;;;;;;;19.30;53.44;100792.25;5052733;28;20077;-74
2023/05/10 03:42:55;;;;;;;52.83;48.28;;;;;;;19.33;53.14;100794.41;5059591;28;20476;-71
2023/05/10 03:45:20;;;;;;;48.50;44.67;;;;;;;19.31;53.48;100788.41;5071678;28;20032;-75
2023/05/10 03:47:45;;;;;;;51.10;46.78;;;;;;;19.31;53.27;100800.19;5065789;28;20086;-71
2023/05/10 03:50:11;;;;;;;50.20;46.10;;;;;;;19.31;53.09;100796.63;5071701;28;20068;-70
2023/05/10 03:52:38;;;;;;;47.63;44.13;;;;;;;19.30;53.32;100793.06;5067265;28;20376;-71
2023/05/10 03:55:05;;;;;;;47.08;43.75;;;;;;;19.27;53.53;100792.88;5062120;28;20491;-72
2023/05/10 03:57:30;;;;;;;49.40;45.58;;;;;;;19.28;53.08;100799.94;5053516;28;20407;-70
2023/05/10 03:59:55;;;;;;;49.45;45.92;;;;;;;19.29;53.34;100801.59;5055064;28;20052;-70
2023/05/10 04:02:21;;;;;;;48.75;45.22;;;;;;;19.26;53.56;100800.28;5061097;28;20041;-70
2023/05/10 04:04:46;;;;;;;48.22;44.42;;;;;;;19.26;53.55;100811.22;5067643;28;20052;-86
2023/05/10 04:07:12;;;;;;;48.03;44.45;;;;;;;19.26;53.63;100800.28;5050734;28;20348;-70
2023/05/10 04:09:37;;;;;;;47.40;43.92;;;;;;;19.24;53.56;100803.31;5066985;28;20036;-70
2023/05/10 04:12:03;;;;;;;50.25;46.45;;;;;;;19.24;53.27;100806.03;5069119;28;20032;-71
2023/05/10 04:14:28;;;;;;;48.72;45.10;;;;;;;19.24;53.13;100802.50;5051854;28;20033;-74
2023/05/10 04:16:53;;;;;;;49.15;45.30;;;;;;;19.24;53.44;100802.50;5069778;28;20039;-72
2023/05/10 04:19:19;;;;;;;48.60;44.75;;;;;;;19.23;53.22;100803.63;5069259;28;20112;-72
2023/05/10 04:21:44;;;;;;;47.60;43.83;;;;;;;19.23;53.15;100800.88;5042806;28;20029;-72
2023/05/10 04:24:10;;;;;;;47.78;43.97;;;;;;;19.23;53.06;100804.44;5071420;28;20040;-71
2023/05/10 04:26:35;;;;;;;50.15;46.25;;;;;;;19.23;53.60;100800.88;5070983;28;20107;-72
2023/05/10 04:29:00;;;;;;;47.55;43.90;;;;;;;19.22;53.14;100805.50;5070965;28;20028;-76
2023/05/10 04:31:27;;;;;;;46.40;43.08;;;;;;;19.22;53.69;100808.25;5051687;28;20065;-71
2023/05/10 04:33:53;;;;;;;47.10;43.90;;;;;;;19.22;53.04;100802.78;5066613;28;20033;-71
2023/05/10 04:36:18;;;;;;;48.40;44.50;;;;;;;19.23;53.31;100814.56;5067545;28;20035;-71
2023/05/10 04:38:43;;;;;;;45.60;42.45;;;;;;;19.22;53.45;100812.94;5071370;28;20097;-73
2023/05/10 04:41:10;;;;;;;48.50;44.88;;;;;;;19.21;53.08;100805.84;5070178;28;20702;-71
2023/05/10 04:43:36;;;;;;;49.03;45.42;;;;;;;19.20;53.14;100806.94;5054112;28;20120;-72
2023/05/10 04:46:02;;;;;;;46.45;43.25;;;;;;;19.21;53.40;100812.13;5071277;28;20485;-77
2023/05/10 04:48:27;;;;;;;46.53;43.22;;;;;;;19.20;53.10;100812.41;5071237;28;20512;-72
2023/05/10 04:50:52;;;;;;;46.90;43.38;;;;;;;19.20;53.01;100805.03;5050243;28;20391;-71
2023/05/10 04:53:18;;;;;;;47.03;43.55;;;;;;;19.19;53.55;100810.78;5056620;28;20039;-72
2023/05/10 04:55:43;;;;;;;46.83;43.33;;;;;;;19.18;53.43;100807.25;5070120;28;20379;-75
2023/05/10 04:58:09;;;;;;;48.20;44.65;;;;;;;19.18;53.57;100809.19;5059096;28;20084;-71
2023/05/10 05:00:35;;;;;;;49.28;45.40;;;;;;;19.17;53.04;100813.00;5055225;28;20400;-72
2023/05/10 05:03:00;;;;;;;47.05;43.53;;;;;;;19.17;53.01;100813.00;5069943;28;20102;-71
2023/05/10 05:05:26;;;;;;;44.42;41.22;;;;;;;19.15;53.56;100815.22;5066138;28;20064;-75
2023/05/10 05:07:51;;;;;;;45.60;42.53;;;;;;;19.13;53.37;100814.75;5074581;28;20025;-71
2023/05/10 05:10:17;;;;;;;47.22;43.67;;;;;;;19.15;53.59;100824.28;5062298;28;20088;-76
2023/05/10 05:12:42;;;;;;;47.35;44.25;;;;;;;19.16;53.13;100822.34;5037445;28;20039;-70
2023/05/10 05:15:09;;;;;;;45.42;42.38;;;;;;;19.13;53.21;100817.47;5070465;28;20073;-73
2023/05/10 05:17:35;;;;;;;45.78;42.50;;;;;;;19.13;53.38;100826.50;5074727;28;20056;-72
2023/05/10 05:20:00;;;;;;;47.08;43.33;;;;;;;19.13;53.35;100831.97;5074116;28;20064;-70
2023/05/10 05:22:28;;;;;;;45.67;42.33;;;;;;;19.13;53.04;100833.91;5063195;28;20037;-71
2023/05/10 05:24:54;;;;;;;45.42;42.13;;;;;;;19.13;53.19;100842.13;5074821;28;20395;-73
2023/05/10 05:27:24;;;;;;;45.92;42.65;;;;;;;19.12;53.01;100844.03;5056854;28;20040;-73
2023/05/10 05:29:56;;;;;;;45.58;42.30;;;;;;;19.12;53.46;100841.28;5073746;28;20032;-72
2023/05/10 05:32:22;;;;;;;45.55;42.13;;;;;;;19.12;53.11;100849.50;5055907;28;20036;-71
2023/05/10 05:34:48;;;;;;;46.35;43.03;;;;;;;19.11;52.97;100852.56;5074304;28;20036;-72
2023/05/10 05:37:15;;;;;;;48.60;45.17;;;;;;;19.11;53.37;100844.34;5073336;28;20033;-72
2023/05/10 05:39:40;;;;;;;43.88;41.33;;;;;;;19.11;52.93;100855.28;5073703;28;20101;-71
2023/05/10 05:42:06;;;;;;;47.72;44.33;;;;;;;19.11;52.99;100850.63;5065809;28;20463;-73
2023/05/10 05:44:31;;;;;;;48.67;45.30;;;;;;;19.11;52.96;100850.63;5043314;28;20479;-75
2023/05/10 05:46:57;;;;;;;45.50;42.30;;;;;;;19.09;53.27;100858.31;5069277;28;20032;-76
2023/05/10 05:49:22;;;;;;;49.05;45.20;;;;;;;19.09;53.30;100854.75;5069715;28;20133;-71
2023/05/10 05:51:49;;;;;;;43.63;40.55;;;;;;;19.09;53.43;100858.31;5068312;28;20464;-71
2023/05/10 05:54:14;;;;;;;48.05;44.45;;;;;;;19.09;52.97;100862.97;5070606;28;20468;-72
2023/05/10 05:56:40;;;;;;;46.20;42.90;;;;;;;19.08;53.43;100858.63;5070341;28;20035;-72
2023/05/10 05:59:05;;;;;;;47.60;43.88;;;;;;;19.07;53.05;100860.53;5051827;28;20057;-73
2023/05/10 06:01:31;;;;;;;44.95;41.95;;;;;;;19.08;53.10;100878.59;5071415;28;20051;-72
2023/05/10 06:03:56;;;;;;;43.88;40.80;;;;;;;19.06;53.00;100864.38;5069270;28;20037;-72
2023/05/10 06:06:22;;;;;;;43.70;40.50;;;;;;;19.06;53.22;100869.84;5070974;28;20051;-72
2023/05/10 06:08:47;;;;;;;44.65;41.35;;;;;;;19.05;53.06;100873.72;5053137;28;20035;-73
2023/05/10 06:11:12;;;;;;;40.17;37.78;;;;;;;19.02;53.33;100863.34;5070082;28;20399;-70
2023/05/10 06:13:38;;;;;;;47.58;44.42;;;;;;;19.01;53.66;100868.00;5052131;28;20127;-75
2023/05/10 06:16:03;;;;;;;45.53;42.28;;;;;;;19.01;53.68;100875.41;5053296;28;20119;-71
2023/05/10 06:18:29;;;;;;;44.53;41.20;;;;;;;19.02;53.49;100864.19;5051340;28;20032;-71
2023/05/10 06:20:54;;;;;;;45.63;42.55;;;;;;;19.02;53.35;100875.13;5066409;28;20036;-71
2023/05/10 06:23:20;;;;;;;45.17;41.95;;;;;;;19.03;53.11;100875.94;5036026;28;20135;-71
2023/05/10 06:25:45;;;;;;;45.03;41.75;;;;;;;19.02;53.65;100877.88;5064291;28;20037;-71
2023/05/10 06:28:11;;;;;;;48.10;44.38;;;;;;;19.01;53.70;100878.97;5064804;28;20115;-73
2023/05/10 06:30:36;;;;;;;44.67;41.40;;;;;;;19.03;53.11;100884.16;5069019;28;20158;-71
2023/05/10 06:33:02;;;;;;;61.65;56.38;;;;;;;19.02;53.49;100887.97;5051112;28;20136;-84
2023/05/10 06:35:28;;;;;;;44.03;41.00;;;;;;;19.00;53.19;100882.81;5067324;28;20615;-71
2023/05/10 06:37:53;;;;;;;42.53;39.90;;;;;;;19.02;53.48;100893.44;5067293;28;20075;-71
2023/05/10 06:40:19;;;;;;;47.40;44.10;;;;;;;19.02;53.52;100893.44;5069705;28;20560;-71
2023/05/10 06:42:45;;;;;;;44.67;41.67;;;;;;;19.02;53.55;100897.03;5069900;28;20089;-78
2023/05/10 06:45:11;;;;;;;46.47;43.10;;;;;;;19.01;53.83;100900.03;5050906;28;20032;-73
2023/05/10 06:47:36;;;;;;;47.35;44.13;;;;;;;19.02;53.77;100904.41;5051731;28;20033;-73
2023/05/10 06:50:02;;;;;;;43.53;40.35;;;;;;;19.03;53.17;100904.13;5066620;28;20045;-72
2023/05/10 06:52:27;;;;;;;44.38;41.25;;;;;;;19.02;53.35;100905.25;5070098;28;20048;-71
2023/05/10 06:54:52;;;;;;;44.55;41.67;;;;;;;19.06;52.96;100901.91;5069690;28;20453;-74
2023/05/10 06:57:18;;;;;;;41.45;38.65;;;;;;;19.01;53.52;100895.38;5070321;28;20115;-72
2023/05/10 06:59:43;;;;;;;46.15;43.08;;;;;;;19.02;53.35;100913.44;5069312;28;20052;-80
2023/05/10 07:02:09;;;;;;;44.33;41.22;;;;;;;19.06;53.42;100910.13;5070465;28;20033;-73
2023/05/10 07:04:34;;;;;;;42.40;39.60;;;;;;;19.06;53.58;100921.06;5067784;28;20068;-79
2023/05/10 07:06:59;;;;;;;44.63;41.33;;;;;;;19.07;53.44;100917.22;5063921;28;20044;-74
2023/05/10 07:09:25;;;;;;;42.83;40.10;;;;;;;19.07;53.15;100918.00;5063610;28;20601;-76
2023/05/10 07:11:50;;;;;;;43.50;40.80;;;;;;;19.05;53.70;100922.16;5065280;28;20043;-80
2023/05/10 07:14:16;;;;;;;43.13;40.28;;;;;;;19.02;53.54;100923.56;5040736;28;20044;-73
2023/05/10 07:16:41;;;;;;;39.72;37.58;;;;;;;19.03;53.22;100920.53;5067065;28;20060;-72
2023/05/10 07:19:07;;;;;;;39.58;37.42;;;;;;;19.00;53.90;100928.53;5067734;28;20025;-78
2023/05/10 07:21:32;;;;;;;42.63;40.03;;;;;;;19.03;53.65;100926.03;5064423;28;20395;-73
2023/05/10 07:23:58;;;;;;;44.55;41.45;;;;;;;19.06;53.18;100927.34;5067124;28;20217;-72
2023/05/10 07:26:23;;;;;;;43.20;40.75;;;;;;;19.05;53.75;100931.22;5065122;28;20107;-71
2023/05/10 07:28:49;;;;;;;44.25;41.20;;;;;;;19.04;53.48;100929.56;5064670;28;20108;-80
2023/05/10 07:31:15;;;;;;;41.65;39.30;;;;;;;19.05;53.46;100928.47;5069496;28;20040;-72
2023/05/10 07:33:40;;;;;;;43.70;40.88;;;;;;;19.05;53.19;100933.09;5051720;28;20061;-72
2023/05/10 07:36:06;;;;;;;41.30;38.97;;;;;;;19.02;53.86;100934.53;5066168;28;20456;-71
2023/05/10 07:38:31;;;;;;;39.10;36.85;;;;;;;19.00;53.54;100932.09;5064763;28;20036;-71
2023/05/10 07:40:56;;;;;;;41.35;38.58;;;;;;;19.01;53.52;100925.50;5064821;28;20480;-72
2023/05/10 07:43:22;;;;;;;42.08;39.10;;;;;;;19.02;53.59;100935.34;5066220;28;20036;-71
2023/05/10 07:45:47;;;;;;;42.90;40.33;;;;;;;19.01;53.69;100927.44;5032791;28;20396;-71
2023/05/10 07:48:13;;;;;;;43.30;40.20;;;;;;;19.03;53.91;100939.72;5065119;28;20048;-71
2023/05/10 07:50:38;;;;;;;41.97;39.58;;;;;;;19.06;53.50;100932.81;5061318;28;20373;-71
2023/05/10 07:53:03;;;;;;;40.33;37.75;;;;;;;19.08;54.06;100938.03;5067291;28;20388;-72
2023/05/10 07:55:29;;;;;;;41.95;39.55;;;;;;;19.13;53.85;100935.22;5064687;28;20041;-71
2023/05/10 07:57:54;;;;;;;42.10;39.60;;;;;;;19.15;53.47;100933.81;5033378;28;20372;-71
2023/05/10 08:00:20;;;;;;;42.58;40.08;;;;;;;19.18;53.61;100937.88;5032700;28;20532;-71
2023/05/10 08:02:47;;;;;;;40.63;38.42;;;;;;;19.17;53.89;100942.50;5033794;28;20461;-73
2023/05/10 08:05:13;;;;;;;39.70;37.20;;;;;;;19.19;53.78;100940.31;5014549;28;20065;-80
2023/05/10 08:07:38;;;;;;;41.50;38.97;;;;;;;19.23;53.87;100946.81;5036884;28;20036;-72
2023/05/10 08:10:05;;;;;;;40.63;38.28;;;;;;;19.23;53.34;100951.50;5035928;28;20042;-76
2023/05/10 08:12:30;;;;;;;41.42;39.15;;;;;;;19.24;53.36;100948.44;5037716;28;20126;-75
2023/05/10 08:14:56;;;;;;;39.63;37.45;;;;;;;19.27;53.84;100948.97;5031578;28;20036;-71
2023/05/10 08:17:21;;;;;;;43.55;41.10;;;;;;;19.30;53.49;100951.09;5040610;28;20037;-78
2023/05/10 08:19:46;;;;;;;42.95;40.45;;;;;;;19.31;53.39;100945.34;5026217;28;20033;-81
2023/05/10 08:22:12;;;;;;;42.95;40.30;;;;;;;19.36;53.49;100950.75;5043496;28;20116;-79
2023/05/10 08:24:38;;;;;;;43.00;40.40;;;;;;;19.40;53.63;100954.53;5039930;28;20535;-72
2023/05/10 08:27:08;;;;;;;40.03;38.03;;;;;;;19.42;53.29;100954.22;5036691;28;20029;-73
2023/05/10 08:29:33;;;;;;;43.88;41.30;;;;;;;19.43;53.53;100962.16;5033204;28;20030;-78
2023/05/10 08:32:00;;;;;;;42.67;40.28;;;;;;;19.48;53.47;100958.53;5033076;28;20056;-81
2023/05/10 08:34:26;;;;;;;44.10;41.38;;;;;;;19.49;53.56;100959.34;5026151;28;20050;-79
2023/05/10 08:36:52;;;;;;;43.67;41.28;;;;;;;19.55;53.44;100960.88;5035491;28;20045;-79
2023/05/10 08:39:17;;;;;;;42.90;40.38;;;;;;;19.57;54.04;100961.38;5035811;28;20040;-80
2023/05/10 08:41:44;;;;;;;41.95;39.65;;;;;;;19.62;54.00;100967.59;5036903;28;20089;-79
2023/05/10 08:44:10;;;;;;;43.17;40.85;;;;;;;19.66;53.63;100965.09;5035632;28;20052;-80
2023/05/10 08:46:39;;;;;;;41.92;39.65;;;;;;;19.66;53.90;100965.09;5036317;28;20033;-79
2023/05/10 08:49:07;;;;;;;40.42;38.45;;;;;;;19.67;53.85;100966.75;5035742;28;20075;-79
2023/05/10 08:51:36;;;;;;;41.83;39.63;;;;;;;19.67;54.42;100970.28;5037055;28;20068;-80
2023/05/10 08:54:03;;;;;;;42.67;40.33;;;;;;;19.73;53.77;100971.03;5037266;28;20036;-78
2023/05/10 08:56:29;;;;;;;41.60;39.50;;;;;;;19.76;53.78;100973.19;5037082;28;20052;-79
2023/05/10 08:58:57;;;;;;;42.85;40.53;;;;;;;19.80;54.29;100976.94;5042459;28;20401;-79
2023/05/10 09:01:24;;;;;;;44.17;41.63;;;;;;;19.87;54.07;100979.31;5056473;28;20452;-79
2023/05/10 09:03:50;;;;;;;42.15;39.75;;;;;;;19.92;54.08;100981.97;5055574;28;20055;-80
2023/05/10 09:06:16;;;;;;;45.42;43.05;;;;;;;19.94;53.87;100981.69;5044322;28;20049;-82
2023/05/10 09:08:42;;;;;;;45.35;42.72;;;;;;;19.99;53.96;100982.41;5054773;28;20460;-81
2023/05/10 09:11:10;;;;;;;43.05;40.80;;;;;;;20.03;54.24;100979.84;5056631;28;20033;-81
2023/05/10 09:13:36;;;;;;;42.25;40.00;;;;;;;20.05;53.99;100985.84;5056245;28;20025;-82
2023/05/10 09:16:03;;;;;;;42.95;40.75;;;;;;;20.06;53.89;100993.00;5054443;28;20074;-80
2023/05/10 09:18:28;;;;;;;45.47;42.88;;;;;;;20.11;53.84;100992.91;5056711;28;20053;-82
2023/05/10 09:20:54;;;;;;;45.78;43.17;;;;;;;20.13;54.11;100993.38;5055731;28;20141;-76
2023/05/10 09:23:20;;;;;;;46.20;43.63;;;;;;;20.15;54.35;100991.16;5056397;28;20033;-81
2023/05/10 09:25:45;;;;;;;45.30;43.00;;;;;;;20.17;54.08;101001.84;5056063;28;20029;-81
2023/05/10 09:28:11;;;;;;;44.47;42.15;;;;;;;20.20;54.21;100999.31;5038091;28;20440;-81
2023/05/10 09:30:37;;;;;;;45.05;42.65;;;;;;;20.23;54.40;101000.63;5055544;28;20060;-80
2023/05/10 09:33:03;;;;;;;45.28;42.78;;;;;;;20.27;54.03;101002.47;5055766;28;20114;-81
2023/05/10 09:35:31;;;;;;;45.67;43.38;;;;;;;20.28;54.42;101006.03;5045002;28;20065;-81
2023/05/10 09:37:59;;;;;;;45.65;43.10;;;;;;;20.26;54.25;101003.59;5055951;28;20036;-80
2023/05/10 09:40:27;;;;;;;45.30;43.08;;;;;;;20.29;54.65;101005.72;5054745;28;20037;-81
2023/05/10 09:43:02;;;;;;;46.92;44.38;;;;;;;20.35;54.42;101006.44;5056090;28;20029;-81
2023/05/10 09:45:33;;;;;;;47.30;44.65;;;;;;;20.38;54.02;101005.03;5054674;28;20037;-81
2023/05/10 09:48:00;;;;;;;47.60;44.90;;;;;;;20.38;54.20;101016.00;5055950;28;20025;-80
2023/05/10 09:50:26;;;;;;;46.45;43.88;;;;;;;20.37;54.27;101015.19;5038616;28;20033;-82
2023/05/10 09:52:58;;;;;;;46.83;44.30;;;;;;;20.42;54.61;101011.56;5055487;28;20041;-80
2023/05/10 09:55:38;;;;;;;46.55;44.05;;;;;;;20.48;53.88;101018.56;5055508;28;20032;-82
2023/05/10 09:58:06;;;;;;;48.03;45.42;;;;;;;20.49;53.99;101021.00;5054480;28;20411;-80
2023/05/10 10:00:37;;;;;;;48.93;46.03;;;;;;;20.55;54.37;101018.19;5076078;28;20052;-81
2023/05/10 10:03:03;;;;;;;46.90;44.28;;;;;;;20.56;54.40;101026.13;5075165;28;20068;-81
2023/05/10 10:05:34;;;;;;;47.60;44.90;;;;;;;20.59;54.06;101021.94;5046725;28;20044;-82
2023/05/10 10:08:03;;;;;;;48.28;45.25;;;;;;;20.62;53.83;101022.19;5075435;28;20086;-79
2023/05/10 10:10:28;;;;;;;50.35;47.53;;;;;;;20.66;53.60;101025.13;5076185;28;20025;-79
2023/05/10 10:12:55;;;;;;;46.65;44.25;;;;;;;20.67;53.61;101022.06;5079312;28;20081;-79
2023/05/10 10:15:21;;;;;;;47.65;45.13;;;;;;;20.68;53.91;101020.94;5060788;28;20348;-80
2023/05/10 10:17:48;;;;;;;50.20;47.60;;;;;;;20.69;54.27;101028.09;5075362;28;20036;-80
2023/05/10 10:20:14;;;;;;;47.85;45.25;;;;;;;20.69;53.79;101032.75;5075244;28;20029;-80
2023/05/10 10:22:40;;;;;;;48.80;46.20;;;;;;;20.72;53.84;101034.91;5075247;28;20033;-80
2023/05/10 10:25:07;;;;;;;49.22;46.63;;;;;;;20.74;53.81;101033.47;5074698;28;20087;-80
2023/05/10 10:27:54;;;;;;;48.70;46.10;;;;;;;20.74;53.91;101033.47;5045804;28;20041;-79
2023/05/10 10:30:37;;;;;;;49.03;46.42;;;;;;;20.75;54.18;101039.78;5062599;28;20036;-80
2023/05/10 10:33:02;;;;;;;49.97;47.17;;;;;;;20.75;54.05;101040.56;5078208;28;20119;-79
2023/05/10 10:35:31;;;;;;;47.53;45.08;;;;;;;20.74;54.31;101033.47;5067780;28;20076;-80
2023/05/10 10:37:56;;;;;;;;;;;;;;;20.87;53.51;101039.28;5074671;28;20438;-79
2023/05/10 10:40:33;;;;;;;48.70;46.10;;;;;;;20.81;54.10;101035.78;5075159;28;19913;-80
2023/05/10 10:43:23;;;;;;;49.65;46.80;;;;;;;20.81;53.93;101032.25;5074740;28;20107;-80
2023/05/10 10:46:11;;;;;;;45.88;43.58;;;;;;;20.83;54.04;101025.31;5074376;28;20107;-80
2023/05/10 10:48:36;;;;;;;48.35;45.67;;;;;;;20.83;53.88;101028.06;5074792;28;20099;-81
2023/05/10 10:51:02;;;;;;;50.42;47.47;;;;;;;20.83;54.04;101030.00;5074400;28;20107;-80
2023/05/10 10:53:28;;;;;;;52.13;49.03;;;;;;;20.87;53.53;101031.84;5074022;28;20025;-82
2023/05/10 10:56:14;;;;;;;49.40;46.60;;;;;;;20.86;54.04;101032.13;5058088;28;20112;-82
2023/05/10 10:58:41;;;;;;;49.03;46.13;;;;;;;20.89;53.92;101037.84;5075782;28;20036;-83
2023/05/10 11:01:14;;;;;;;49.65;46.95;;;;;;;20.90;53.66;101039.47;5075256;28;20037;-81
2023/05/10 11:03:41;;;;;;;50.53;47.65;;;;;;;20.88;53.85;101036.22;5076282;28;20028;-82
2023/05/10 11:06:07;;;;;;;50.05;47.42;;;;;;;20.92;53.47;101031.75;5067302;28;20044;-86
2023/05/10 11:08:42;;;;;;;49.05;46.38;;;;;;;20.95;53.83;101030.31;5076377;28;20028;-86
2023/05/10 11:11:08;;;;;;;51.15;48.35;;;;;;;20.98;53.68;101032.44;5075005;28;20035;-85
2023/05/10 11:13:37;;;;;;;48.53;46.03;;;;;;;20.98;53.96;101040.69;5074567;28;20198;-84